トビリシ の空港の天気 - METARとTAF

トビリシ国際空港 ( UGTB / TBS ) - グルジア トビリシ
飛行場実況気象(Metar)
観測時間06/23 05:30 GET (06/23 01:30 UTC)
風向・風速西北西 8m/s
視程10km以上
天気現象
なし
気温18℃
湿度73%
気圧1016hPa
METARUGTB 230130Z 30016KT CAVOK 18/13 Q1016 R31L/CLRD70 NOSIG
過去の天気等 Google飛行場航空写真 Wunderground天気予報

過去48時間のMETAR

飛行場予報(TAF)
発表時間: 6/23 03:00 GET (6/22 23:00 UTC)
予報対象時間: 23日4時 GET ~ 24日4時 GET
風向・風速北西 11m/s
視程10km以上
なし
23日13時 GET ~ 23日15時 GET に徐々に
全天の4割程度の積乱雲 雲底高度 1,520m
23日16時 GET ~ 23日20時 GET に 確率 40% で一時的に
天気現象雷雨
全天の8割程度の積乱雲 雲底高度 1,370m
23日23時 GET ~ 24日2時 GET に徐々に
風向・風速西北西 6m/s
TAF UGTB 222300Z 2300/2324 31021KT CAVOK TX27/2312Z TN17/2302Z
BECMG 2309/2311 SCT050CB
PROB40 TEMPO 2312/2316 TSRA BKN045CB
BECMG 2319/2322 30011KT